sensor_id;sensor_type;location;lat;lon;timestamp;temperature;humidity
6054;DHT22;3055;50.886;14.814;2023-10-19T00:01:14;7.70;1.00
6054;DHT22;3055;50.886;14.814;2023-10-19T00:03:41;7.70;1.00
6054;DHT22;3055;50.886;14.814;2023-10-19T00:06:09;7.60;2.90
6054;DHT22;3055;50.886;14.814;2023-10-19T00:08:37;7.60;1.00
6054;DHT22;3055;50.886;14.814;2023-10-19T00:11:07;7.40;5.00
6054;DHT22;3055;50.886;14.814;2023-10-19T00:13:37;7.30;22.10
6054;DHT22;3055;50.886;14.814;2023-10-19T00:16:05;7.20;41.70
6054;DHT22;3055;50.886;14.814;2023-10-19T00:18:37;7.30;32.60
6054;DHT22;3055;50.886;14.814;2023-10-19T00:21:08;7.30;39.90
6054;DHT22;3055;50.886;14.814;2023-10-19T00:23:45;7.30;29.80
6054;DHT22;3055;50.886;14.814;2023-10-19T00:26:13;7.30;32.10
6054;DHT22;3055;50.886;14.814;2023-10-19T00:28:44;7.40;25.10
6054;DHT22;3055;50.886;14.814;2023-10-19T00:31:12;7.60;9.30
6054;DHT22;3055;50.886;14.814;2023-10-19T00:33:39;7.70;8.00
6054;DHT22;3055;50.886;14.814;2023-10-19T00:36:07;7.60;15.20
6054;DHT22;3055;50.886;14.814;2023-10-19T00:38:35;7.60;8.60
6054;DHT22;3055;50.886;14.814;2023-10-19T00:41:13;7.60;10.30
6054;DHT22;3055;50.886;14.814;2023-10-19T00:43:48;7.60;20.70
6054;DHT22;3055;50.886;14.814;2023-10-19T00:46:17;7.60;25.50
6054;DHT22;3055;50.886;14.814;2023-10-19T00:48:49;7.60;21.40
6054;DHT22;3055;50.886;14.814;2023-10-19T00:51:20;7.60;12.20
6054;DHT22;3055;50.886;14.814;2023-10-19T00:54:06;7.60;15.00
6054;DHT22;3055;50.886;14.814;2023-10-19T00:56:36;7.50;27.10
6054;DHT22;3055;50.886;14.814;2023-10-19T00:59:11;7.60;17.30
6054;DHT22;3055;50.886;14.814;2023-10-19T01:01:41;7.80;11.10
6054;DHT22;3055;50.886;14.814;2023-10-19T01:04:11;7.90;3.20
6054;DHT22;3055;50.886;14.814;2023-10-19T01:06:40;7.80;13.10
6054;DHT22;3055;50.886;14.814;2023-10-19T01:09:11;7.80;11.70
6054;DHT22;3055;50.886;14.814;2023-10-19T01:11:42;7.80;17.20
6054;DHT22;3055;50.886;14.814;2023-10-19T01:14:22;7.90;12.10
6054;DHT22;3055;50.886;14.814;2023-10-19T01:16:53;7.90;1.00
6054;DHT22;3055;50.886;14.814;2023-10-19T01:19:22;8.10;1.00
6054;DHT22;3055;50.886;14.814;2023-10-19T01:21:50;8.20;1.00
6054;DHT22;3055;50.886;14.814;2023-10-19T01:24:20;8.20;1.00
6054;DHT22;3055;50.886;14.814;2023-10-19T01:26:58;8.30;1.00
6054;DHT22;3055;50.886;14.814;2023-10-19T01:29:26;8.40;1.00
6054;DHT22;3055;50.886;14.814;2023-10-19T01:31:54;8.40;1.00
6054;DHT22;3055;50.886;14.814;2023-10-19T01:34:31;8.40;1.00
6054;DHT22;3055;50.886;14.814;2023-10-19T01:37:00;8.40;1.00
6054;DHT22;3055;50.886;14.814;2023-10-19T01:39:31;8.40;1.00
6054;DHT22;3055;50.886;14.814;2023-10-19T01:41:57;8.30;1.00
6054;DHT22;3055;50.886;14.814;2023-10-19T01:44:25;8.30;1.00
6054;DHT22;3055;50.886;14.814;2023-10-19T01:46:52;8.20;1.00
6054;DHT22;3055;50.886;14.814;2023-10-19T01:49:19;8.20;1.00
6054;DHT22;3055;50.886;14.814;2023-10-19T01:51:52;8.20;1.00
6054;DHT22;3055;50.886;14.814;2023-10-19T01:54:19;8.20;1.00
6054;DHT22;3055;50.886;14.814;2023-10-19T01:56:50;8.10;8.60
6054;DHT22;3055;50.886;14.814;2023-10-19T01:59:20;8.00;8.40
6054;DHT22;3055;50.886;14.814;2023-10-19T02:01:46;7.90;16.00
6054;DHT22;3055;50.886;14.814;2023-10-19T02:04:15;7.90;23.80
6054;DHT22;3055;50.886;14.814;2023-10-19T02:06:42;7.90;21.20
6054;DHT22;3055;50.886;14.814;2023-10-19T02:09:13;8.00;12.70
6054;DHT22;3055;50.886;14.814;2023-10-19T02:11:52;8.10;9.60
6054;DHT22;3055;50.886;14.814;2023-10-19T02:14:19;8.20;12.10
6054;DHT22;3055;50.886;14.814;2023-10-19T02:16:48;8.30;1.00
6054;DHT22;3055;50.886;14.814;2023-10-19T02:19:17;8.40;1.00
6054;DHT22;3055;50.886;14.814;2023-10-19T02:21:45;8.60;1.00
6054;DHT22;3055;50.886;14.814;2023-10-19T02:24:14;8.70;1.00
6054;DHT22;3055;50.886;14.814;2023-10-19T02:26:42;8.80;1.00
6054;DHT22;3055;50.886;14.814;2023-10-19T02:29:09;8.90;1.00
6054;DHT22;3055;50.886;14.814;2023-10-19T02:31:37;9.00;1.00
6054;DHT22;3055;50.886;14.814;2023-10-19T02:34:04;9.00;91.20
6054;DHT22;3055;50.886;14.814;2023-10-19T02:36:31;9.10;1.00
6054;DHT22;3055;50.886;14.814;2023-10-19T02:38:59;9.10;1.00
6054;DHT22;3055;50.886;14.814;2023-10-19T02:41:26;9.20;1.00
6054;DHT22;3055;50.886;14.814;2023-10-19T02:43:53;9.30;1.00
6054;DHT22;3055;50.886;14.814;2023-10-19T02:46:32;9.30;1.00
6054;DHT22;3055;50.886;14.814;2023-10-19T02:49:00;9.30;99.90
6054;DHT22;3055;50.886;14.814;2023-10-19T02:51:28;9.30;99.90
6054;DHT22;3055;50.886;14.814;2023-10-19T02:53:55;9.30;99.90
6054;DHT22;3055;50.886;14.814;2023-10-19T02:56:22;9.30;99.90
6054;DHT22;3055;50.886;14.814;2023-10-19T02:58:49;9.30;99.90
6054;DHT22;3055;50.886;14.814;2023-10-19T03:01:18;9.30;99.90
6054;DHT22;3055;50.886;14.814;2023-10-19T03:03:50;9.30;99.90
6054;DHT22;3055;50.886;14.814;2023-10-19T03:06:21;9.30;99.90
6054;DHT22;3055;50.886;14.814;2023-10-19T03:08:48;9.30;99.90
6054;DHT22;3055;50.886;14.814;2023-10-19T03:11:21;9.30;99.90
6054;DHT22;3055;50.886;14.814;2023-10-19T03:13:48;9.30;99.90
6054;DHT22;3055;50.886;14.814;2023-10-19T03:16:16;9.40;99.90
6054;DHT22;3055;50.886;14.814;2023-10-19T03:18:44;9.30;99.90
6054;DHT22;3055;50.886;14.814;2023-10-19T03:21:12;9.30;99.90
6054;DHT22;3055;50.886;14.814;2023-10-19T03:23:39;9.30;99.90
6054;DHT22;3055;50.886;14.814;2023-10-19T03:26:06;9.30;99.90
6054;DHT22;3055;50.886;14.814;2023-10-19T03:28:53;9.30;99.90
6054;DHT22;3055;50.886;14.814;2023-10-19T03:31:22;9.30;99.90
6054;DHT22;3055;50.886;14.814;2023-10-19T03:33:50;9.30;99.90
6054;DHT22;3055;50.886;14.814;2023-10-19T03:36:22;9.30;99.90
6054;DHT22;3055;50.886;14.814;2023-10-19T03:38:49;9.30;1.00
6054;DHT22;3055;50.886;14.814;2023-10-19T03:41:18;9.30;99.90
6054;DHT22;3055;50.886;14.814;2023-10-19T03:43:48;9.20;1.00
6054;DHT22;3055;50.886;14.814;2023-10-19T03:46:17;9.20;1.00
6054;DHT22;3055;50.886;14.814;2023-10-19T03:48:55;9.20;1.00
6054;DHT22;3055;50.886;14.814;2023-10-19T03:51:26;9.10;1.00
6054;DHT22;3055;50.886;14.814;2023-10-19T03:54:05;9.10;1.50
6054;DHT22;3055;50.886;14.814;2023-10-19T03:56:48;9.00;99.90
6054;DHT22;3055;50.886;14.814;2023-10-19T03:59:16;8.90;99.90
6054;DHT22;3055;50.886;14.814;2023-10-19T04:01:43;8.90;1.00
6054;DHT22;3055;50.886;14.814;2023-10-19T04:04:10;8.80;99.90
6054;DHT22;3055;50.886;14.814;2023-10-19T04:06:39;8.80;1.00
6054;DHT22;3055;50.886;14.814;2023-10-19T04:09:06;8.80;1.00
6054;DHT22;3055;50.886;14.814;2023-10-19T04:11:35;8.60;99.90
6054;DHT22;3055;50.886;14.814;2023-10-19T04:14:13;8.60;1.00
6054;DHT22;3055;50.886;14.814;2023-10-19T04:16:42;8.60;1.00
6054;DHT22;3055;50.886;14.814;2023-10-19T04:19:10;8.60;1.00
6054;DHT22;3055;50.886;14.814;2023-10-19T04:21:38;8.60;1.00
6054;DHT22;3055;50.886;14.814;2023-10-19T04:24:09;8.50;1.00
6054;DHT22;3055;50.886;14.814;2023-10-19T04:26:36;8.40;1.00
6054;DHT22;3055;50.886;14.814;2023-10-19T04:29:04;8.30;29.70
6054;DHT22;3055;50.886;14.814;2023-10-19T04:31:36;8.30;96.50
6054;DHT22;3055;50.886;14.814;2023-10-19T04:34:06;8.30;92.30
6054;DHT22;3055;50.886;14.814;2023-10-19T04:36:34;8.30;99.90
6054;DHT22;3055;50.886;14.814;2023-10-19T04:39:03;8.20;99.90
6054;DHT22;3055;50.886;14.814;2023-10-19T04:41:30;8.30;99.90
6054;DHT22;3055;50.886;14.814;2023-10-19T04:43:57;8.20;99.90
6054;DHT22;3055;50.886;14.814;2023-10-19T04:46:24;8.20;99.90
6054;DHT22;3055;50.886;14.814;2023-10-19T04:48:51;8.20;99.90
6054;DHT22;3055;50.886;14.814;2023-10-19T04:51:18;8.20;99.90
6054;DHT22;3055;50.886;14.814;2023-10-19T04:53:45;8.20;99.90
6054;DHT22;3055;50.886;14.814;2023-10-19T04:56:13;8.10;99.90
6054;DHT22;3055;50.886;14.814;2023-10-19T04:58:40;8.10;99.90
6054;DHT22;3055;50.886;14.814;2023-10-19T05:01:07;8.10;99.90
6054;DHT22;3055;50.886;14.814;2023-10-19T05:03:37;8.00;99.90
6054;DHT22;3055;50.886;14.814;2023-10-19T05:06:04;8.00;99.90
6054;DHT22;3055;50.886;14.814;2023-10-19T05:08:31;8.00;99.90
6054;DHT22;3055;50.886;14.814;2023-10-19T05:10:58;8.00;99.90
6054;DHT22;3055;50.886;14.814;2023-10-19T05:13:27;8.00;99.90
6054;DHT22;3055;50.886;14.814;2023-10-19T05:15:55;8.00;99.90
6054;DHT22;3055;50.886;14.814;2023-10-19T05:18:25;8.00;99.90
6054;DHT22;3055;50.886;14.814;2023-10-19T05:20:53;7.90;99.90
6054;DHT22;3055;50.886;14.814;2023-10-19T05:23:22;8.00;99.90
6054;DHT22;3055;50.886;14.814;2023-10-19T05:25:51;7.90;99.90
6054;DHT22;3055;50.886;14.814;2023-10-19T05:28:19;7.90;99.90
6054;DHT22;3055;50.886;14.814;2023-10-19T05:30:48;7.80;99.90
6054;DHT22;3055;50.886;14.814;2023-10-19T05:33:16;7.80;99.90
6054;DHT22;3055;50.886;14.814;2023-10-19T05:35:46;7.70;99.90
6054;DHT22;3055;50.886;14.814;2023-10-19T05:38:13;7.70;99.90
6054;DHT22;3055;50.886;14.814;2023-10-19T05:40:41;7.70;99.90
6054;DHT22;3055;50.886;14.814;2023-10-19T05:43:08;7.70;99.90
6054;DHT22;3055;50.886;14.814;2023-10-19T05:45:35;7.70;99.90
6054;DHT22;3055;50.886;14.814;2023-10-19T05:48:05;7.70;99.90
6054;DHT22;3055;50.886;14.814;2023-10-19T05:50:33;7.70;99.90
6054;DHT22;3055;50.886;14.814;2023-10-19T05:53:00;7.70;99.90
6054;DHT22;3055;50.886;14.814;2023-10-19T05:55:28;7.70;99.90
6054;DHT22;3055;50.886;14.814;2023-10-19T05:57:55;7.70;99.90
6054;DHT22;3055;50.886;14.814;2023-10-19T06:00:22;7.70;99.90
6054;DHT22;3055;50.886;14.814;2023-10-19T06:02:52;7.70;99.90
6054;DHT22;3055;50.886;14.814;2023-10-19T06:05:20;7.70;99.90
6054;DHT22;3055;50.886;14.814;2023-10-19T06:07:48;7.80;99.90
6054;DHT22;3055;50.886;14.814;2023-10-19T06:10:17;7.80;99.90
6054;DHT22;3055;50.886;14.814;2023-10-19T06:12:47;7.80;99.90
6054;DHT22;3055;50.886;14.814;2023-10-19T06:15:18;7.80;99.90
6054;DHT22;3055;50.886;14.814;2023-10-19T06:17:46;7.80;99.90
6054;DHT22;3055;50.886;14.814;2023-10-19T06:20:15;7.80;99.90
6054;DHT22;3055;50.886;14.814;2023-10-19T06:22:54;7.90;99.90
6054;DHT22;3055;50.886;14.814;2023-10-19T06:25:23;7.90;99.90
6054;DHT22;3055;50.886;14.814;2023-10-19T06:27:51;7.90;99.90
6054;DHT22;3055;50.886;14.814;2023-10-19T06:30:19;7.90;99.90
6054;DHT22;3055;50.886;14.814;2023-10-19T06:32:50;7.90;99.90
6054;DHT22;3055;50.886;14.814;2023-10-19T06:35:17;7.90;99.90
6054;DHT22;3055;50.886;14.814;2023-10-19T06:37:44;7.90;99.90
6054;DHT22;3055;50.886;14.814;2023-10-19T06:40:15;7.90;99.90
6054;DHT22;3055;50.886;14.814;2023-10-19T06:42:42;8.00;99.90
6054;DHT22;3055;50.886;14.814;2023-10-19T06:45:11;8.00;99.90
6054;DHT22;3055;50.886;14.814;2023-10-19T06:47:40;8.00;99.90
6054;DHT22;3055;50.886;14.814;2023-10-19T06:50:09;7.90;99.90
6054;DHT22;3055;50.886;14.814;2023-10-19T06:52:37;8.00;99.90
6054;DHT22;3055;50.886;14.814;2023-10-19T06:55:04;8.10;99.90
6054;DHT22;3055;50.886;14.814;2023-10-19T06:57:34;8.00;99.90
6054;DHT22;3055;50.886;14.814;2023-10-19T07:00:02;8.00;99.90
6054;DHT22;3055;50.886;14.814;2023-10-19T07:02:40;8.00;99.90
6054;DHT22;3055;50.886;14.814;2023-10-19T07:05:07;8.10;99.90
6054;DHT22;3055;50.886;14.814;2023-10-19T07:07:38;8.10;99.90
6054;DHT22;3055;50.886;14.814;2023-10-19T07:10:06;8.10;99.90
6054;DHT22;3055;50.886;14.814;2023-10-19T07:12:36;8.00;99.90
6054;DHT22;3055;50.886;14.814;2023-10-19T07:15:04;8.00;99.90
6054;DHT22;3055;50.886;14.814;2023-10-19T07:17:33;8.10;99.90
6054;DHT22;3055;50.886;14.814;2023-10-19T07:20:00;8.10;99.90
6054;DHT22;3055;50.886;14.814;2023-10-19T07:22:28;8.10;99.90
6054;DHT22;3055;50.886;14.814;2023-10-19T07:24:56;8.10;99.90
6054;DHT22;3055;50.886;14.814;2023-10-19T07:27:23;8.10;99.90
6054;DHT22;3055;50.886;14.814;2023-10-19T07:29:55;8.10;99.90
6054;DHT22;3055;50.886;14.814;2023-10-19T07:32:22;8.20;99.90
6054;DHT22;3055;50.886;14.814;2023-10-19T07:34:49;8.20;99.90
6054;DHT22;3055;50.886;14.814;2023-10-19T07:37:16;8.20;99.90
6054;DHT22;3055;50.886;14.814;2023-10-19T07:39:45;8.20;99.90
6054;DHT22;3055;50.886;14.814;2023-10-19T07:42:13;8.20;99.90
6054;DHT22;3055;50.886;14.814;2023-10-19T07:44:41;8.20;99.90
6054;DHT22;3055;50.886;14.814;2023-10-19T07:47:10;8.30;99.90
6054;DHT22;3055;50.886;14.814;2023-10-19T07:49:37;8.30;99.90
6054;DHT22;3055;50.886;14.814;2023-10-19T07:52:05;8.30;99.90
6054;DHT22;3055;50.886;14.814;2023-10-19T07:54:32;8.30;99.90
6054;DHT22;3055;50.886;14.814;2023-10-19T07:57:00;8.40;99.90
6054;DHT22;3055;50.886;14.814;2023-10-19T07:59:31;8.40;99.90
6054;DHT22;3055;50.886;14.814;2023-10-19T08:01:59;8.30;99.90
6054;DHT22;3055;50.886;14.814;2023-10-19T08:04:29;8.40;99.90
6054;DHT22;3055;50.886;14.814;2023-10-19T08:06:56;8.40;99.90
6054;DHT22;3055;50.886;14.814;2023-10-19T08:09:24;8.40;99.90
6054;DHT22;3055;50.886;14.814;2023-10-19T08:11:57;8.40;99.90
6054;DHT22;3055;50.886;14.814;2023-10-19T08:14:25;8.50;99.90
6054;DHT22;3055;50.886;14.814;2023-10-19T08:16:52;8.60;99.90
6054;DHT22;3055;50.886;14.814;2023-10-19T08:19:19;8.70;99.90
6054;DHT22;3055;50.886;14.814;2023-10-19T08:21:47;8.70;99.90
6054;DHT22;3055;50.886;14.814;2023-10-19T08:24:14;8.70;99.90
6054;DHT22;3055;50.886;14.814;2023-10-19T08:26:43;8.70;99.90
6054;DHT22;3055;50.886;14.814;2023-10-19T08:29:11;8.60;99.90
6054;DHT22;3055;50.886;14.814;2023-10-19T08:31:39;8.70;99.90
6054;DHT22;3055;50.886;14.814;2023-10-19T08:34:07;8.60;99.90
6054;DHT22;3055;50.886;14.814;2023-10-19T08:36:35;8.60;99.90
6054;DHT22;3055;50.886;14.814;2023-10-19T08:39:05;8.50;99.90
6054;DHT22;3055;50.886;14.814;2023-10-19T08:41:33;8.50;99.90
6054;DHT22;3055;50.886;14.814;2023-10-19T08:44:03;8.50;99.90
6054;DHT22;3055;50.886;14.814;2023-10-19T08:46:33;8.70;99.90
6054;DHT22;3055;50.886;14.814;2023-10-19T08:49:01;8.60;99.90
6054;DHT22;3055;50.886;14.814;2023-10-19T08:51:28;8.60;99.90
6054;DHT22;3055;50.886;14.814;2023-10-19T08:53:55;8.60;99.90
6054;DHT22;3055;50.886;14.814;2023-10-19T08:56:24;8.60;99.90
6054;DHT22;3055;50.886;14.814;2023-10-19T08:58:51;8.60;99.90
6054;DHT22;3055;50.886;14.814;2023-10-19T09:01:19;8.60;99.90
6054;DHT22;3055;50.886;14.814;2023-10-19T09:03:50;8.70;99.90
6054;DHT22;3055;50.886;14.814;2023-10-19T09:06:17;8.70;99.90
6054;DHT22;3055;50.886;14.814;2023-10-19T09:08:47;8.60;99.90
6054;DHT22;3055;50.886;14.814;2023-10-19T09:11:15;8.60;99.90
6054;DHT22;3055;50.886;14.814;2023-10-19T09:13:47;8.50;99.90
6054;DHT22;3055;50.886;14.814;2023-10-19T09:16:15;8.60;99.90
6054;DHT22;3055;50.886;14.814;2023-10-19T09:18:42;8.60;99.90
6054;DHT22;3055;50.886;14.814;2023-10-19T09:21:11;8.60;99.90
6054;DHT22;3055;50.886;14.814;2023-10-19T09:23:38;8.60;99.90
6054;DHT22;3055;50.886;14.814;2023-10-19T09:26:07;8.60;99.90
6054;DHT22;3055;50.886;14.814;2023-10-19T09:28:36;8.60;99.90
6054;DHT22;3055;50.886;14.814;2023-10-19T09:31:05;8.60;99.90
6054;DHT22;3055;50.886;14.814;2023-10-19T09:33:35;8.60;99.90
6054;DHT22;3055;50.886;14.814;2023-10-19T09:36:03;8.60;99.90
6054;DHT22;3055;50.886;14.814;2023-10-19T09:38:38;8.60;99.90
6054;DHT22;3055;50.886;14.814;2023-10-19T09:41:08;8.60;99.90
6054;DHT22;3055;50.886;14.814;2023-10-19T09:43:43;8.60;99.90
6054;DHT22;3055;50.886;14.814;2023-10-19T09:46:15;8.70;99.90
6054;DHT22;3055;50.886;14.814;2023-10-19T09:48:46;8.70;99.90
6054;DHT22;3055;50.886;14.814;2023-10-19T09:51:14;8.70;99.90
6054;DHT22;3055;50.886;14.814;2023-10-19T09:53:49;8.80;99.90
6054;DHT22;3055;50.886;14.814;2023-10-19T09:56:19;8.90;99.90
6054;DHT22;3055;50.886;14.814;2023-10-19T09:58:49;8.90;99.90
6054;DHT22;3055;50.886;14.814;2023-10-19T10:01:19;8.90;99.90
6054;DHT22;3055;50.886;14.814;2023-10-19T10:03:48;8.90;99.90
6054;DHT22;3055;50.886;14.814;2023-10-19T10:06:17;9.10;99.90
6054;DHT22;3055;50.886;14.814;2023-10-19T10:08:53;9.10;99.90
6054;DHT22;3055;50.886;14.814;2023-10-19T10:11:22;9.20;99.90
6054;DHT22;3055;50.886;14.814;2023-10-19T10:13:50;9.20;99.90
6054;DHT22;3055;50.886;14.814;2023-10-19T10:16:21;9.30;99.90
6054;DHT22;3055;50.886;14.814;2023-10-19T10:18:49;9.40;99.90
6054;DHT22;3055;50.886;14.814;2023-10-19T10:21:18;9.40;99.90
6054;DHT22;3055;50.886;14.814;2023-10-19T10:23:48;9.50;99.90
6054;DHT22;3055;50.886;14.814;2023-10-19T10:26:16;9.60;99.90
6054;DHT22;3055;50.886;14.814;2023-10-19T10:28:47;9.90;99.90
6054;DHT22;3055;50.886;14.814;2023-10-19T10:31:20;10.10;99.90
6054;DHT22;3055;50.886;14.814;2023-10-19T10:33:49;10.30;99.90
6054;DHT22;3055;50.886;14.814;2023-10-19T10:36:17;10.40;99.90
6054;DHT22;3055;50.886;14.814;2023-10-19T10:38:45;10.30;99.90
6054;DHT22;3055;50.886;14.814;2023-10-19T10:41:19;10.20;99.90
6054;DHT22;3055;50.886;14.814;2023-10-19T10:43:51;10.20;99.90
6054;DHT22;3055;50.886;14.814;2023-10-19T10:46:21;10.30;99.90
6054;DHT22;3055;50.886;14.814;2023-10-19T10:48:49;10.40;99.90
6054;DHT22;3055;50.886;14.814;2023-10-19T10:51:21;10.60;99.90
6054;DHT22;3055;50.886;14.814;2023-10-19T10:53:53;10.80;99.90
6054;DHT22;3055;50.886;14.814;2023-10-19T10:56:21;10.90;99.90
6054;DHT22;3055;50.886;14.814;2023-10-19T10:58:49;10.90;99.90
6054;DHT22;3055;50.886;14.814;2023-10-19T11:01:29;10.90;99.90
6054;DHT22;3055;50.886;14.814;2023-10-19T11:04:09;10.80;99.90
6054;DHT22;3055;50.886;14.814;2023-10-19T11:06:48;10.70;99.90
6054;DHT22;3055;50.886;14.814;2023-10-19T11:09:15;10.60;99.90
6054;DHT22;3055;50.886;14.814;2023-10-19T11:11:44;10.60;99.90
6054;DHT22;3055;50.886;14.814;2023-10-19T11:14:12;10.50;99.90
6054;DHT22;3055;50.886;14.814;2023-10-19T11:16:40;10.60;99.90
6054;DHT22;3055;50.886;14.814;2023-10-19T11:19:09;10.80;99.90
6054;DHT22;3055;50.886;14.814;2023-10-19T11:21:36;11.00;99.90
6054;DHT22;3055;50.886;14.814;2023-10-19T11:24:04;11.20;99.90
6054;DHT22;3055;50.886;14.814;2023-10-19T11:26:40;11.40;99.90
6054;DHT22;3055;50.886;14.814;2023-10-19T11:29:07;11.50;99.90
6054;DHT22;3055;50.886;14.814;2023-10-19T11:31:35;11.40;99.90
6054;DHT22;3055;50.886;14.814;2023-10-19T11:34:06;11.30;99.90
6054;DHT22;3055;50.886;14.814;2023-10-19T11:36:34;11.30;99.90
6054;DHT22;3055;50.886;14.814;2023-10-19T11:39:01;11.20;99.90
6054;DHT22;3055;50.886;14.814;2023-10-19T11:41:30;11.00;99.90
6054;DHT22;3055;50.886;14.814;2023-10-19T11:43:57;10.90;99.90
6054;DHT22;3055;50.886;14.814;2023-10-19T11:46:24;10.80;99.90
6054;DHT22;3055;50.886;14.814;2023-10-19T11:48:51;10.80;99.90
6054;DHT22;3055;50.886;14.814;2023-10-19T11:51:20;10.80;99.90
6054;DHT22;3055;50.886;14.814;2023-10-19T11:53:47;10.80;99.90
6054;DHT22;3055;50.886;14.814;2023-10-19T11:56:14;10.70;99.90
6054;DHT22;3055;50.886;14.814;2023-10-19T11:58:42;10.70;99.90
6054;DHT22;3055;50.886;14.814;2023-10-19T12:01:12;10.60;99.90
6054;DHT22;3055;50.886;14.814;2023-10-19T12:03:41;10.60;99.90
6054;DHT22;3055;50.886;14.814;2023-10-19T12:06:12;10.60;99.90
6054;DHT22;3055;50.886;14.814;2023-10-19T12:08:46;10.60;99.90
6054;DHT22;3055;50.886;14.814;2023-10-19T12:11:13;10.60;99.90
6054;DHT22;3055;50.886;14.814;2023-10-19T12:13:42;10.60;99.90
6054;DHT22;3055;50.886;14.814;2023-10-19T12:16:10;10.70;99.90
6054;DHT22;3055;50.886;14.814;2023-10-19T12:18:38;10.70;99.90
6054;DHT22;3055;50.886;14.814;2023-10-19T12:21:05;10.60;99.90
6054;DHT22;3055;50.886;14.814;2023-10-19T12:23:38;10.60;99.90
6054;DHT22;3055;50.886;14.814;2023-10-19T12:26:06;10.60;99.90
6054;DHT22;3055;50.886;14.814;2023-10-19T12:28:36;10.70;99.90
6054;DHT22;3055;50.886;14.814;2023-10-19T12:31:05;10.60;99.90
6054;DHT22;3055;50.886;14.814;2023-10-19T12:33:34;10.60;99.90
6054;DHT22;3055;50.886;14.814;2023-10-19T12:36:01;10.60;99.90
6054;DHT22;3055;50.886;14.814;2023-10-19T12:38:47;10.60;99.90
6054;DHT22;3055;50.886;14.814;2023-10-19T12:41:16;10.50;99.90
6054;DHT22;3055;50.886;14.814;2023-10-19T12:43:43;10.50;99.90
6054;DHT22;3055;50.886;14.814;2023-10-19T12:46:11;10.50;99.90
6054;DHT22;3055;50.886;14.814;2023-10-19T12:48:39;10.50;99.90
6054;DHT22;3055;50.886;14.814;2023-10-19T12:51:06;10.50;99.90
6054;DHT22;3055;50.886;14.814;2023-10-19T12:53:34;10.50;99.90
6054;DHT22;3055;50.886;14.814;2023-10-19T12:56:03;10.60;99.90
6054;DHT22;3055;50.886;14.814;2023-10-19T12:58:32;10.60;99.90
6054;DHT22;3055;50.886;14.814;2023-10-19T13:00:59;10.60;99.90
6054;DHT22;3055;50.886;14.814;2023-10-19T13:03:26;10.60;99.90
6054;DHT22;3055;50.886;14.814;2023-10-19T13:05:57;10.60;99.90
6054;DHT22;3055;50.886;14.814;2023-10-19T13:08:24;10.60;99.90
6054;DHT22;3055;50.886;14.814;2023-10-19T13:10:53;10.60;99.90
6054;DHT22;3055;50.886;14.814;2023-10-19T13:13:21;10.60;99.90
6054;DHT22;3055;50.886;14.814;2023-10-19T13:15:51;10.50;99.90
6054;DHT22;3055;50.886;14.814;2023-10-19T13:18:19;10.60;99.90
6054;DHT22;3055;50.886;14.814;2023-10-19T13:20:48;10.70;99.90
6054;DHT22;3055;50.886;14.814;2023-10-19T13:23:15;10.80;99.90
6054;DHT22;3055;50.886;14.814;2023-10-19T13:25:42;10.80;99.90
6054;DHT22;3055;50.886;14.814;2023-10-19T13:28:16;10.80;99.90
6054;DHT22;3055;50.886;14.814;2023-10-19T13:30:46;10.80;99.90
6054;DHT22;3055;50.886;14.814;2023-10-19T13:33:16;10.90;99.90
6054;DHT22;3055;50.886;14.814;2023-10-19T13:35:45;11.00;99.90
6054;DHT22;3055;50.886;14.814;2023-10-19T13:38:14;11.10;99.90
6054;DHT22;3055;50.886;14.814;2023-10-19T13:40:43;11.10;99.90
6054;DHT22;3055;50.886;14.814;2023-10-19T13:43:10;11.20;99.90
6054;DHT22;3055;50.886;14.814;2023-10-19T13:45:40;11.20;99.90
6054;DHT22;3055;50.886;14.814;2023-10-19T13:48:09;11.30;99.90
6054;DHT22;3055;50.886;14.814;2023-10-19T13:50:42;11.30;99.90
6054;DHT22;3055;50.886;14.814;2023-10-19T13:53:09;11.30;99.90
6054;DHT22;3055;50.886;14.814;2023-10-19T13:55:36;11.20;99.90
6054;DHT22;3055;50.886;14.814;2023-10-19T13:58:04;11.30;99.90
6054;DHT22;3055;50.886;14.814;2023-10-19T14:00:32;11.40;99.90
6054;DHT22;3055;50.886;14.814;2023-10-19T14:03:06;11.40;99.90
6054;DHT22;3055;50.886;14.814;2023-10-19T14:05:37;11.50;99.90
6054;DHT22;3055;50.886;14.814;2023-10-19T14:08:06;11.60;99.90
6054;DHT22;3055;50.886;14.814;2023-10-19T14:10:33;11.70;99.90
6054;DHT22;3055;50.886;14.814;2023-10-19T14:13:00;11.70;99.90
6054;DHT22;3055;50.886;14.814;2023-10-19T14:15:27;11.80;99.90
6054;DHT22;3055;50.886;14.814;2023-10-19T14:17:56;11.80;99.90
6054;DHT22;3055;50.886;14.814;2023-10-19T14:20:24;11.80;99.90
6054;DHT22;3055;50.886;14.814;2023-10-19T14:22:53;11.80;99.90
6054;DHT22;3055;50.886;14.814;2023-10-19T14:25:20;11.70;99.90
6054;DHT22;3055;50.886;14.814;2023-10-19T14:27:49;11.50;99.90
6054;DHT22;3055;50.886;14.814;2023-10-19T14:30:19;11.50;99.90
6054;DHT22;3055;50.886;14.814;2023-10-19T14:32:48;11.50;99.90
6054;DHT22;3055;50.886;14.814;2023-10-19T14:35:16;11.40;99.90
6054;DHT22;3055;50.886;14.814;2023-10-19T14:37:46;11.40;99.90
6054;DHT22;3055;50.886;14.814;2023-10-19T14:40:16;11.40;99.90
6054;DHT22;3055;50.886;14.814;2023-10-19T14:42:46;11.40;99.90
6054;DHT22;3055;50.886;14.814;2023-10-19T14:45:14;11.40;99.90
6054;DHT22;3055;50.886;14.814;2023-10-19T14:47:42;11.30;99.90
6054;DHT22;3055;50.886;14.814;2023-10-19T14:50:11;11.30;99.90
6054;DHT22;3055;50.886;14.814;2023-10-19T14:52:40;11.30;99.90
6054;DHT22;3055;50.886;14.814;2023-10-19T14:55:08;11.20;99.90
6054;DHT22;3055;50.886;14.814;2023-10-19T14:57:37;11.30;99.90
6054;DHT22;3055;50.886;14.814;2023-10-19T15:00:05;11.20;99.90
6054;DHT22;3055;50.886;14.814;2023-10-19T15:02:41;11.20;99.90
6054;DHT22;3055;50.886;14.814;2023-10-19T15:05:08;11.20;99.90
6054;DHT22;3055;50.886;14.814;2023-10-19T15:07:40;11.10;99.90
6054;DHT22;3055;50.886;14.814;2023-10-19T15:10:09;11.10;99.90
6054;DHT22;3055;50.886;14.814;2023-10-19T15:12:39;11.10;99.90
6054;DHT22;3055;50.886;14.814;2023-10-19T15:15:07;11.10;99.90
6054;DHT22;3055;50.886;14.814;2023-10-19T15:17:34;11.10;99.90
6054;DHT22;3055;50.886;14.814;2023-10-19T15:20:04;11.10;99.90
6054;DHT22;3055;50.886;14.814;2023-10-19T15:22:32;11.00;99.90
6054;DHT22;3055;50.886;14.814;2023-10-19T15:24:59;11.00;99.90
6054;DHT22;3055;50.886;14.814;2023-10-19T15:27:27;11.00;99.90
6054;DHT22;3055;50.886;14.814;2023-10-19T15:29:56;11.00;99.90
6054;DHT22;3055;50.886;14.814;2023-10-19T15:32:24;10.90;99.90
6054;DHT22;3055;50.886;14.814;2023-10-19T15:34:51;10.90;99.90
6054;DHT22;3055;50.886;14.814;2023-10-19T15:37:18;10.80;99.90
6054;DHT22;3055;50.886;14.814;2023-10-19T15:39:46;10.80;99.90
6054;DHT22;3055;50.886;14.814;2023-10-19T15:42:13;10.80;99.90
6054;DHT22;3055;50.886;14.814;2023-10-19T15:44:40;10.80;99.90
6054;DHT22;3055;50.886;14.814;2023-10-19T15:47:09;10.80;99.90
6054;DHT22;3055;50.886;14.814;2023-10-19T15:49:45;10.80;99.90
6054;DHT22;3055;50.886;14.814;2023-10-19T15:52:14;10.80;99.90
6054;DHT22;3055;50.886;14.814;2023-10-19T15:54:41;10.80;99.90
6054;DHT22;3055;50.886;14.814;2023-10-19T15:57:08;10.70;99.90
6054;DHT22;3055;50.886;14.814;2023-10-19T15:59:35;10.70;99.90
6054;DHT22;3055;50.886;14.814;2023-10-19T16:02:02;10.70;99.90
6054;DHT22;3055;50.886;14.814;2023-10-19T16:04:32;10.70;99.90
6054;DHT22;3055;50.886;14.814;2023-10-19T16:06:59;10.70;99.90
6054;DHT22;3055;50.886;14.814;2023-10-19T16:09:26;10.70;99.90